Time;durP1;ratioP1;P1;durP2;ratioP2;P2;SDS_P1;SDS_P2;PMS_P1;PMS_P2;Temp;Humidity;BMP_temperature;BMP_pressure;BME280_temperature;BME280_humidity;BME280_pressure;Samples;Min_cycle;Max_cycle;Signal;HPM_P1;HPM_P2
2022/09/29 00:03:54;;;;;;;10.73;7.03;;;;;;;;;;12980134;22;20094;-80
2022/09/29 00:08:56;;;;;;;8.75;6.72;;;;;;;;;;12952807;22;20015;-80
2022/09/29 00:13:57;;;;;;;10.63;7.55;;;;;;;;;;12983919;22;20091;-81
2022/09/29 00:18:58;;;;;;;10.15;6.63;;;;;;;;;;12980216;22;20011;-78
2022/09/29 00:23:59;;;;;;;9.05;6.22;;;;;;;;;;13017663;22;20530;-78
2022/09/29 00:29:00;;;;;;;9.68;6.90;;;;;;;;;;12972438;22;20008;-81
2022/09/29 00:34:00;;;;;;;9.82;7.15;;;;;;;;;;12979851;22;20027;-81
2022/09/29 00:39:03;;;;;;;9.13;6.50;;;;;;;;;;12950310;22;20455;-81
2022/09/29 00:44:06;;;;;;;8.32;6.30;;;;;;;;;;12978457;22;20015;-81
2022/09/29 00:49:08;;;;;;;;;;;;;;;;;;12978183;22;20431;-81
2022/09/29 00:54:09;;;;;;;8.88;7.65;;;;;;;;;;12976919;22;19919;-77
2022/09/29 00:59:12;;;;;;;8.27;6.07;;;;;;;;;;12978915;22;20371;-77
2022/09/29 01:04:16;;;;;;;9.82;6.28;;;;;;;;;;12982070;22;20015;-79
2022/09/29 01:09:20;;;;;;;8.48;5.78;;;;;;;;;;12956470;22;20756;-78
2022/09/29 01:14:21;;;;;;;8.48;6.35;;;;;;;;;;12979130;22;20016;-77
2022/09/29 01:19:41;;;;;;;6.85;5.97;;;;;;;;;;12928858;22;20377;-79
2022/09/29 01:25:13;;;;;;;8.25;6.00;;;;;;;;;;12981738;22;20008;-79
2022/09/29 01:30:32;;;;;;;10.55;6.40;;;;;;;;;;12896956;22;20397;-82
2022/09/29 01:35:39;;;;;;;9.93;6.28;;;;;;;;;;12979557;22;20023;-80
2022/09/29 01:40:49;;;;;;;8.75;5.75;;;;;;;;;;12980214;22;20107;-80
2022/09/29 01:45:58;;;;;;;7.97;5.65;;;;;;;;;;12953710;22;20011;-79
2022/09/29 01:51:03;;;;;;;7.75;6.60;;;;;;;;;;12979404;22;20008;-79
2022/09/29 01:56:07;;;;;;;10.15;6.85;;;;;;;;;;12977553;22;20012;-80
2022/09/29 02:01:10;;;;;;;9.38;6.38;;;;;;;;;;12979233;22;20447;-78
2022/09/29 02:06:21;;;;;;;10.73;6.35;;;;;;;;;;12979101;22;20371;-78
2022/09/29 02:11:21;;;;;;;7.35;5.30;;;;;;;;;;12928088;22;20027;-79
2022/09/29 02:16:27;;;;;;;9.52;6.22;;;;;;;;;;12979315;22;20016;-77
2022/09/29 02:21:28;;;;;;;6.18;5.15;;;;;;;;;;12978159;22;20106;-77
2022/09/29 02:26:31;;;;;;;7.45;5.65;;;;;;;;;;12951356;22;20016;-76
2022/09/29 02:31:32;;;;;;;9.63;5.72;;;;;;;;;;12979033;22;20523;-78
2022/09/29 02:36:41;;;;;;;9.30;5.82;;;;;;;;;;12979812;22;20027;-77
2022/09/29 02:42:00;;;;;;;8.13;5.63;;;;;;;;;;12983069;22;20278;-83
2022/09/29 02:47:12;;;;;;;8.60;6.18;;;;;;;;;;12967243;22;20015;-84
2022/09/29 02:52:37;;;;;;;9.57;6.03;;;;;;;;;;13001748;22;20016;-82
2022/09/29 02:57:44;;;;;;;11.15;6.53;;;;;;;;;;12996889;22;20067;-83
2022/09/29 03:02:46;;;;;;;7.38;5.95;;;;;;;;;;12974855;22;20015;-82
2022/09/29 03:07:49;;;;;;;8.05;6.25;;;;;;;;;;12992272;22;20301;-76
2022/09/29 03:12:49;;;;;;;9.43;5.78;;;;;;;;;;12965399;22;20027;-79
2022/09/29 03:17:53;;;;;;;9.65;5.90;;;;;;;;;;12957577;22;20018;-80
2022/09/29 03:22:55;;;;;;;7.53;5.95;;;;;;;;;;13010604;22;19996;-80
2022/09/29 03:27:55;;;;;;;8.60;6.32;;;;;;;;;;13038823;22;20000;-82
2022/09/29 03:32:55;;;;;;;9.50;6.53;;;;;;;;;;13025316;22;20031;-81
2022/09/29 03:37:57;;;;;;;8.87;6.07;;;;;;;;;;12961490;22;20090;-82
2022/09/29 03:42:58;;;;;;;7.13;5.88;;;;;;;;;;12934252;22;20341;-83
2022/09/29 03:47:58;;;;;;;6.55;5.72;;;;;;;;;;12954875;22;20054;-81
2022/09/29 03:53:00;;;;;;;8.73;6.22;;;;;;;;;;12954787;22;20015;-81
2022/09/29 03:58:02;;;;;;;9.60;6.63;;;;;;;;;;12937508;22;20008;-82
2022/09/29 04:03:07;;;;;;;7.70;6.15;;;;;;;;;;12965673;22;20016;-83
2022/09/29 04:08:07;;;;;;;10.00;6.55;;;;;;;;;;12982403;22;20495;-83
2022/09/29 04:13:08;;;;;;;9.20;6.57;;;;;;;;;;13059082;22;20369;-83
2022/09/29 04:18:10;;;;;;;9.50;6.88;;;;;;;;;;13049755;22;20007;-81
2022/09/29 04:23:13;;;;;;;9.13;6.85;;;;;;;;;;13059008;22;20003;-84
2022/09/29 04:28:13;;;;;;;12.45;7.25;;;;;;;;;;13092090;22;20047;-83
2022/09/29 04:33:15;;;;;;;9.43;6.55;;;;;;;;;;13081890;22;20030;-82
2022/09/29 04:38:16;;;;;;;10.57;7.03;;;;;;;;;;13092403;22;20018;-80
2022/09/29 04:43:17;;;;;;;8.30;6.30;;;;;;;;;;13087484;22;20012;-79
2022/09/29 04:48:18;;;;;;;10.18;7.22;;;;;;;;;;13063342;22;20030;-77
2022/09/29 04:53:18;;;;;;;7.25;6.30;;;;;;;;;;13065308;22;20016;-78
2022/09/29 04:58:19;;;;;;;11.73;6.45;;;;;;;;;;13045165;22;20018;-77
2022/09/29 05:03:19;;;;;;;10.43;7.32;;;;;;;;;;13045881;22;20079;-79
2022/09/29 05:08:21;;;;;;;9.35;6.53;;;;;;;;;;13044787;22;20609;-78
2022/09/29 05:13:23;;;;;;;10.48;5.97;;;;;;;;;;13045352;22;20026;-79
2022/09/29 05:18:28;;;;;;;8.95;7.25;;;;;;;;;;13046881;22;20031;-79
2022/09/29 05:23:30;;;;;;;9.45;6.50;;;;;;;;;;13021753;22;20107;-81
2022/09/29 05:28:31;;;;;;;9.70;6.55;;;;;;;;;;13020666;22;20037;-81
2022/09/29 05:33:32;;;;;;;9.10;6.00;;;;;;;;;;13047705;22;20346;-80
2022/09/29 05:38:34;;;;;;;9.23;6.75;;;;;;;;;;13047153;22;20018;-76
2022/09/29 05:43:36;;;;;;;12.48;6.88;;;;;;;;;;13010342;22;20023;-79
2022/09/29 05:48:38;;;;;;;9.93;7.03;;;;;;;;;;13043723;22;20083;-79
2022/09/29 05:53:44;;;;;;;12.90;7.28;;;;;;;;;;13021807;22;20366;-77
2022/09/29 05:58:46;;;;;;;11.48;7.40;;;;;;;;;;13026359;22;20003;-78
2022/09/29 06:03:47;;;;;;;10.93;7.72;;;;;;;;;;13045254;22;20052;-78
2022/09/29 06:08:49;;;;;;;12.40;7.18;;;;;;;;;;13090372;22;20018;-81
2022/09/29 06:13:50;;;;;;;10.55;7.20;;;;;;;;;;13030587;22;20015;-81
2022/09/29 06:18:50;;;;;;;9.68;7.05;;;;;;;;;;13092518;22;20011;-82
2022/09/29 06:23:53;;;;;;;9.97;7.13;;;;;;;;;;13071451;22;20003;-82
2022/09/29 06:28:54;;;;;;;12.48;7.35;;;;;;;;;;13049769;22;20242;-79
2022/09/29 06:34:00;;;;;;;11.40;7.60;;;;;;;;;;13044562;22;20023;-80
2022/09/29 06:39:03;;;;;;;12.82;7.88;;;;;;;;;;13059077;22;20030;-79
2022/09/29 06:44:03;;;;;;;12.00;7.65;;;;;;;;;;13069957;22;20031;-81
2022/09/29 06:49:05;;;;;;;10.88;7.97;;;;;;;;;;13045337;22;20011;-78
2022/09/29 06:54:11;;;;;;;15.27;8.00;;;;;;;;;;12994510;22;20019;-80
2022/09/29 06:59:12;;;;;;;14.23;8.50;;;;;;;;;;13032483;22;20011;-80
2022/09/29 07:04:13;;;;;;;11.88;8.32;;;;;;;;;;13072634;22;20111;-79
2022/09/29 07:09:17;;;;;;;13.13;8.93;;;;;;;;;;13024259;22;20019;-80
2022/09/29 07:14:21;;;;;;;11.55;8.57;;;;;;;;;;13015749;22;20156;-80
2022/09/29 07:19:23;;;;;;;12.88;8.85;;;;;;;;;;13050171;22;20022;-79
2022/09/29 07:24:24;;;;;;;13.27;9.35;;;;;;;;;;12992347;22;20013;-81
2022/09/29 07:29:26;;;;;;;18.52;10.00;;;;;;;;;;12994973;22;20423;-80
2022/09/29 07:34:26;;;;;;;15.55;9.55;;;;;;;;;;13021775;22;20031;-80
2022/09/29 07:39:27;;;;;;;12.88;9.98;;;;;;;;;;12987096;22;20047;-79
2022/09/29 07:44:29;;;;;;;15.13;9.35;;;;;;;;;;13051689;22;20046;-80
2022/09/29 07:49:30;;;;;;;15.25;10.00;;;;;;;;;;13061426;22;20017;-78
2022/09/29 07:54:31;;;;;;;13.90;9.80;;;;;;;;;;13021990;22;20042;-79
2022/09/29 07:59:33;;;;;;;16.23;10.10;;;;;;;;;;13067365;22;20256;-80
2022/09/29 08:04:34;;;;;;;;;;;;;;;;;;13057468;22;20018;-79
2022/09/29 08:09:36;;;;;;;15.60;10.07;;;;;;;;;;13077065;22;19914;-79
2022/09/29 08:14:38;;;;;;;14.45;9.98;;;;;;;;;;13044451;22;20088;-79
2022/09/29 08:19:39;;;;;;;15.60;9.35;;;;;;;;;;13043870;22;20011;-79
2022/09/29 08:24:41;;;;;;;14.90;9.52;;;;;;;;;;13018221;22;20112;-80
2022/09/29 08:29:41;;;;;;;14.07;10.38;;;;;;;;;;13045660;22;20015;-80
2022/09/29 08:34:43;;;;;;;13.98;9.85;;;;;;;;;;13019040;22;20043;-81
2022/09/29 08:39:43;;;;;;;14.02;9.70;;;;;;;;;;13044127;22;20387;-80
2022/09/29 08:44:57;;;;;;;12.90;8.38;;;;;;;;;;13019505;22;20023;-78
2022/09/29 08:50:01;;;;;;;12.65;8.73;;;;;;;;;;13046810;22;20014;-80
2022/09/29 08:55:12;;;;;;;11.30;8.27;;;;;;;;;;13039998;22;20033;-80
2022/09/29 09:00:13;;;;;;;13.95;9.35;;;;;;;;;;13041837;22;20007;-80
2022/09/29 09:05:23;;;;;;;12.30;8.63;;;;;;;;;;13017854;22;20035;-80
2022/09/29 09:10:33;;;;;;;11.05;8.65;;;;;;;;;;13060167;22;20008;-79
2022/09/29 09:15:36;;;;;;;10.18;8.02;;;;;;;;;;13053029;22;20027;-78
2022/09/29 09:20:36;;;;;;;;;;;;;;;;;;13075999;22;20010;-78
2022/09/29 09:25:45;;;;;;;8.47;5.97;;;;;;;;;;13019168;22;20497;-79
2022/09/29 09:30:52;;;;;;;8.77;6.82;;;;;;;;;;13046980;22;20011;-78
2022/09/29 09:35:55;;;;;;;9.35;6.55;;;;;;;;;;13054710;22;20756;-78
2022/09/29 09:40:58;;;;;;;11.35;6.38;;;;;;;;;;13059626;22;20053;-77
2022/09/29 09:46:06;;;;;;;9.25;6.78;;;;;;;;;;13043014;22;20066;-77
2022/09/29 09:51:33;;;;;;;12.55;6.80;;;;;;;;;;13071137;22;20015;-77
2022/09/29 09:57:06;;;;;;;9.35;7.03;;;;;;;;;;13070226;22;20105;-77
2022/09/29 10:02:14;;;;;;;11.10;7.53;;;;;;;;;;12979170;22;19999;-79
2022/09/29 10:07:15;;;;;;;10.88;6.95;;;;;;;;;;13092876;22;20017;-78
2022/09/29 10:12:17;;;;;;;9.60;7.60;;;;;;;;;;13078787;22;20022;-79
2022/09/29 10:17:19;;;;;;;;;;;;;;;;;;13038669;22;20023;-78
2022/09/29 10:22:19;;;;;;;9.30;7.28;;;;;;;;;;13037560;22;19914;-79
2022/09/29 10:27:24;;;;;;;9.20;5.97;;;;;;;;;;13023378;22;20011;-79
2022/09/29 10:32:35;;;;;;;8.45;6.10;;;;;;;;;;13060420;22;20027;-79
2022/09/29 10:37:37;;;;;;;9.60;5.97;;;;;;;;;;13048688;22;20018;-79
2022/09/29 10:42:38;;;;;;;7.75;6.20;;;;;;;;;;13043992;22;20012;-76
2022/09/29 10:47:40;;;;;;;7.78;5.20;;;;;;;;;;13042106;22;20102;-76
2022/09/29 10:52:47;;;;;;;8.38;4.80;;;;;;;;;;13014669;22;20443;-76
2022/09/29 10:57:48;;;;;;;5.53;4.53;;;;;;;;;;13042947;22;20492;-77
2022/09/29 11:02:49;;;;;;;5.03;3.83;;;;;;;;;;13051183;22;20026;-79
2022/09/29 11:07:51;;;;;;;3.40;3.10;;;;;;;;;;13042830;22;20095;-81
2022/09/29 11:12:53;;;;;;;;;;;;;;;;;;13016974;22;20057;-77
2022/09/29 11:17:53;;;;;;;8.25;5.30;;;;;;;;;;13014491;22;20280;-77
2022/09/29 11:22:54;;;;;;;7.40;4.50;;;;;;;;;;13042684;22;20015;-77
2022/09/29 11:28:14;;;;;;;6.88;3.85;;;;;;;;;;13014720;22;20481;-77
2022/09/29 11:33:17;;;;;;;6.28;4.47;;;;;;;;;;13043970;22;20023;-78
2022/09/29 11:38:26;;;;;;;6.55;3.92;;;;;;;;;;13043713;22;20010;-78
2022/09/29 11:43:49;;;;;;;8.00;4.53;;;;;;;;;;13035367;22;20026;-82
2022/09/29 11:48:53;;;;;;;7.22;4.13;;;;;;;;;;13035252;22;20053;-78
2022/09/29 11:54:11;;;;;;;7.60;3.78;;;;;;;;;;13043157;22;20022;-77
2022/09/29 11:59:18;;;;;;;7.40;3.67;;;;;;;;;;13047806;22;20011;-79
2022/09/29 12:04:40;;;;;;;9.82;3.67;;;;;;;;;;13059861;22;20011;-80
2022/09/29 12:09:41;;;;;;;5.93;3.40;;;;;;;;;;13018619;22;20019;-79
2022/09/29 12:15:05;;;;;;;8.25;3.92;;;;;;;;;;13033744;22;20023;-80
2022/09/29 12:20:16;;;;;;;5.40;3.78;;;;;;;;;;13052414;22;20094;-79
2022/09/29 12:25:19;;;;;;;5.13;3.55;;;;;;;;;;13019305;22;20145;-79
2022/09/29 12:30:29;;;;;;;5.68;3.13;;;;;;;;;;13045993;22;20012;-78
2022/09/29 12:35:33;;;;;;;5.47;3.08;;;;;;;;;;13017894;22;20031;-79
2022/09/29 12:40:41;;;;;;;3.55;2.72;;;;;;;;;;13043401;22;20011;-78
2022/09/29 12:45:47;;;;;;;3.92;2.78;;;;;;;;;;13041976;22;20011;-81
2022/09/29 12:50:51;;;;;;;3.67;2.42;;;;;;;;;;13042854;22;20156;-80
2022/09/29 12:56:13;;;;;;;6.50;2.58;;;;;;;;;;13049926;22;20073;-81
2022/09/29 13:01:23;;;;;;;2.83;2.10;;;;;;;;;;13049712;22;20015;-81
2022/09/29 13:06:26;;;;;;;3.90;2.50;;;;;;;;;;13050831;22;20018;-80
2022/09/29 13:11:26;;;;;;;2.47;2.28;;;;;;;;;;12993421;22;20027;-81
2022/09/29 13:16:30;;;;;;;5.70;3.30;;;;;;;;;;13017166;22;20030;-81
2022/09/29 13:21:42;;;;;;;5.30;2.50;;;;;;;;;;13021030;22;20101;-81
2022/09/29 13:26:49;;;;;;;3.17;1.92;;;;;;;;;;13049910;22;20015;-80
2022/09/29 13:31:55;;;;;;;2.50;2.00;;;;;;;;;;13021416;22;20011;-84
2022/09/29 13:37:25;;;;;;;4.18;2.70;;;;;;;;;;13056587;22;20037;-81
2022/09/29 13:42:34;;;;;;;3.75;2.42;;;;;;;;;;13045400;22;20015;-80
2022/09/29 13:47:44;;;;;;;4.47;2.20;;;;;;;;;;13094492;22;19995;-80
2022/09/29 13:52:47;;;;;;;3.08;2.60;;;;;;;;;;13105140;22;20057;-81
2022/09/29 13:57:52;;;;;;;5.82;3.20;;;;;;;;;;13075237;22;20015;-81
2022/09/29 14:03:03;;;;;;;4.50;3.10;;;;;;;;;;13020666;22;20011;-81
2022/09/29 14:08:18;;;;;;;5.20;3.45;;;;;;;;;;13020581;22;20257;-81
2022/09/29 14:13:26;;;;;;;5.97;3.40;;;;;;;;;;12995601;22;20019;-80
2022/09/29 14:18:31;;;;;;;4.28;3.80;;;;;;;;;;13045070;22;20781;-79
2022/09/29 14:23:44;;;;;;;6.10;4.35;;;;;;;;;;13010791;22;20090;-78
2022/09/29 14:28:46;;;;;;;5.90;4.38;;;;;;;;;;13068373;22;20019;-78
2022/09/29 14:33:48;;;;;;;5.80;4.30;;;;;;;;;;13040861;22;20046;-80
2022/09/29 14:38:50;;;;;;;6.65;4.63;;;;;;;;;;13050956;22;20015;-81
2022/09/29 14:44:05;;;;;;;7.57;5.22;;;;;;;;;;13076283;22;20035;-80
2022/09/29 14:54:55;;;;;;;5.00;4.07;;;;;;;;;;13017447;22;20461;-77
2022/09/29 15:00:01;;;;;;;8.15;5.65;;;;;;;;;;13018256;22;20335;-79
2022/09/29 15:05:13;;;;;;;6.25;4.68;;;;;;;;;;13019230;22;20064;-79
2022/09/29 15:10:25;;;;;;;5.18;4.32;;;;;;;;;;13054147;22;20034;-79
2022/09/29 15:15:34;;;;;;;6.28;4.57;;;;;;;;;;13095241;22;20010;-79
2022/09/29 15:20:51;;;;;;;5.35;3.88;;;;;;;;;;13077121;22;20002;-79
2022/09/29 15:25:53;;;;;;;4.85;3.83;;;;;;;;;;13073707;22;20097;-78
2022/09/29 15:31:02;;;;;;;3.28;2.97;;;;;;;;;;13074860;22;20015;-80
2022/09/29 15:36:07;;;;;;;5.05;3.22;;;;;;;;;;13078242;22;20030;-78
2022/09/29 15:41:18;;;;;;;3.38;2.70;;;;;;;;;;13043517;22;20102;-79
2022/09/29 15:46:37;;;;;;;4.28;3.10;;;;;;;;;;13006309;22;20023;-79
2022/09/29 15:51:38;;;;;;;3.63;3.13;;;;;;;;;;13043836;22;20011;-78
2022/09/29 16:02:04;;;;;;;3.17;2.88;;;;;;;;;;13046200;22;20057;-78
2022/09/29 16:07:05;;;;;;;4.15;3.53;;;;;;;;;;13042706;22;20015;-79
2022/09/29 16:12:06;;;;;;;4.75;3.40;;;;;;;;;;12991366;22;20023;-80
2022/09/29 16:17:07;;;;;;;4.38;2.60;;;;;;;;;;13016322;22;20161;-79
2022/09/29 16:22:16;;;;;;;4.13;2.70;;;;;;;;;;13044776;22;20026;-78
2022/09/29 16:27:48;;;;;;;3.35;2.67;;;;;;;;;;13048135;22;20022;-78
2022/09/29 16:33:08;;;;;;;2.85;2.50;;;;;;;;;;13009225;22;20054;-78
2022/09/29 16:38:14;;;;;;;2.58;1.88;;;;;;;;;;13055374;22;20019;-79
2022/09/29 16:43:33;;;;;;;6.78;2.40;;;;;;;;;;13073455;22;20082;-77
2022/09/29 16:48:40;;;;;;;3.22;2.90;;;;;;;;;;13052371;22;20007;-77
2022/09/29 16:53:41;;;;;;;5.55;3.20;;;;;;;;;;13046344;22;20015;-81
2022/09/29 16:58:41;;;;;;;3.22;2.80;;;;;;;;;;13060161;22;20093;-79
2022/09/29 17:03:42;;;;;;;3.58;3.00;;;;;;;;;;13089459;22;20037;-79
2022/09/29 17:08:42;;;;;;;3.28;2.70;;;;;;;;;;13045914;22;20004;-77
2022/09/29 17:13:43;;;;;;;3.30;2.55;;;;;;;;;;13022000;22;20104;-77
2022/09/29 17:18:45;;;;;;;3.88;2.90;;;;;;;;;;13022294;22;20031;-80
2022/09/29 17:23:48;;;;;;;3.70;2.33;;;;;;;;;;12998066;22;20392;-79
2022/09/29 17:28:49;;;;;;;3.90;2.53;;;;;;;;;;13054830;22;20014;-78
2022/09/29 17:33:49;;;;;;;3.00;2.70;;;;;;;;;;13086188;22;20031;-80
2022/09/29 17:38:51;;;;;;;4.63;3.03;;;;;;;;;;13086208;22;20015;-79
2022/09/29 17:43:52;;;;;;;4.00;3.17;;;;;;;;;;13033522;22;20261;-79
2022/09/29 17:48:54;;;;;;;3.95;3.17;;;;;;;;;;13063152;22;20015;-82
2022/09/29 17:53:58;;;;;;;3.97;3.30;;;;;;;;;;13041223;22;20011;-82
2022/09/29 17:59:01;;;;;;;;;;;;;;;;;;13078055;22;20006;-81
2022/09/29 18:04:05;;;;;;;7.43;3.17;;;;;;;;;;13076976;22;19922;-81
2022/09/29 18:09:13;;;;;;;5.18;3.55;;;;;;;;;;13105459;22;20041;-81
2022/09/29 18:14:15;;;;;;;6.68;4.55;;;;;;;;;;13077929;22;20021;-83
2022/09/29 18:19:16;;;;;;;6.55;4.20;;;;;;;;;;13106226;22;20035;-81
2022/09/29 18:24:17;;;;;;;6.75;4.65;;;;;;;;;;13036811;22;20019;-82
2022/09/29 18:29:20;;;;;;;6.90;4.75;;;;;;;;;;13051771;22;20007;-82
2022/09/29 18:34:22;;;;;;;7.90;5.85;;;;;;;;;;13050169;22;20019;-80
2022/09/29 18:39:24;;;;;;;5.03;4.32;;;;;;;;;;12998346;22;20011;-84
2022/09/29 18:44:28;;;;;;;5.68;4.55;;;;;;;;;;13025733;22;20019;-81
2022/09/29 18:49:34;;;;;;;5.03;4.45;;;;;;;;;;13058214;22;20015;-83
2022/09/29 18:54:37;;;;;;;6.43;4.95;;;;;;;;;;13062782;22;20655;-80
2022/09/29 18:59:38;;;;;;;8.07;4.88;;;;;;;;;;13094306;22;20007;-87
2022/09/29 19:04:40;;;;;;;6.95;5.45;;;;;;;;;;13084943;22;20027;-85
2022/09/29 19:09:44;;;;;;;9.40;7.30;;;;;;;;;;13066046;22;20008;-85
2022/09/29 19:14:47;;;;;;;9.13;6.93;;;;;;;;;;13062107;22;20027;-82
2022/09/29 19:19:49;;;;;;;8.60;6.25;;;;;;;;;;13027450;22;20343;-83
2022/09/29 19:24:51;;;;;;;8.57;6.38;;;;;;;;;;13032133;22;20015;-85
2022/09/29 19:29:53;;;;;;;8.75;6.95;;;;;;;;;;13009792;22;20019;-85
2022/09/29 19:34:54;;;;;;;8.20;6.28;;;;;;;;;;13037035;22;20028;-86
2022/09/29 19:39:55;;;;;;;9.25;6.57;;;;;;;;;;13054156;22;20011;-83
2022/09/29 19:44:58;;;;;;;10.45;6.88;;;;;;;;;;13058436;22;20026;-82
2022/09/29 19:55:19;;;;;;;10.90;7.15;;;;;;;;;;13039412;22;20019;-80
2022/09/29 20:00:28;;;;;;;8.45;6.88;;;;;;;;;;13072251;22;20011;-84
2022/09/29 20:05:34;;;;;;;7.35;6.65;;;;;;;;;;13059807;22;20519;-84
2022/09/29 20:10:35;;;;;;;8.05;6.70;;;;;;;;;;13054352;22;19996;-82
2022/09/29 20:15:39;;;;;;;7.88;6.45;;;;;;;;;;13103930;22;20008;-82
2022/09/29 20:20:41;;;;;;;7.90;6.97;;;;;;;;;;13102333;22;20054;-82
2022/09/29 20:25:41;;;;;;;10.75;7.15;;;;;;;;;;13038041;22;20073;-83
2022/09/29 20:30:43;;;;;;;8.73;6.85;;;;;;;;;;13029220;22;20015;-82
2022/09/29 20:35:46;;;;;;;7.20;6.20;;;;;;;;;;13082127;22;20045;-85
2022/09/29 20:40:48;;;;;;;9.57;7.30;;;;;;;;;;13051502;22;20014;-83
2022/09/29 20:51:15;;;;;;;8.30;6.38;;;;;;;;;;13025654;22;20023;-84
2022/09/29 21:12:18;;;;;;;13.35;8.20;;;;;;;;;;12845122;22;20004;-80
2022/09/29 21:17:19;;;;;;;13.10;8.13;;;;;;;;;;12855919;22;20899;-80
2022/09/29 21:28:53;;;;;;;10.82;8.18;;;;;;;;;;12953685;22;20008;-85
2022/09/29 21:33:44;;;;;;;12.68;9.23;;;;;;;;;;12927170;22;20028;-80
2022/09/29 21:38:45;;;;;;;11.57;9.50;;;;;;;;;;13032858;22;20011;-82
2022/09/29 21:43:46;;;;;;;12.20;9.13;;;;;;;;;;13016257;22;20019;-81
2022/09/29 21:48:53;;;;;;;13.77;9.27;;;;;;;;;;12987841;22;20440;-84
2022/09/29 21:53:56;;;;;;;10.90;8.63;;;;;;;;;;12990459;22;20027;-79
2022/09/29 21:58:58;;;;;;;11.83;8.10;;;;;;;;;;12988810;22;20018;-82
2022/09/29 22:03:59;;;;;;;12.98;9.70;;;;;;;;;;12989482;22;20169;-80
2022/09/29 22:08:59;;;;;;;13.15;8.80;;;;;;;;;;12986445;22;20375;-79
2022/09/29 22:14:03;;;;;;;12.93;9.27;;;;;;;;;;12990894;22;20074;-80
2022/09/29 22:19:06;;;;;;;12.68;8.90;;;;;;;;;;12969260;22;20341;-83
2022/09/29 22:24:06;;;;;;;13.63;9.95;;;;;;;;;;13001041;22;20031;-83
2022/09/29 22:29:07;;;;;;;10.27;8.50;;;;;;;;;;12989815;22;20035;-82
2022/09/29 22:34:12;;;;;;;11.23;8.85;;;;;;;;;;13011419;22;20023;-82
2022/09/29 22:39:17;;;;;;;13.40;10.15;;;;;;;;;;13028359;22;20003;-84
2022/09/29 22:44:22;;;;;;;13.73;9.45;;;;;;;;;;13036604;22;20031;-82
2022/09/29 22:49:26;;;;;;;16.25;10.15;;;;;;;;;;13009169;22;20018;-83
2022/09/29 22:54:36;;;;;;;12.23;10.10;;;;;;;;;;12955729;22;20035;-82
2022/09/29 22:59:37;;;;;;;14.90;10.90;;;;;;;;;;13041093;22;20019;-84
2022/09/29 23:04:48;;;;;;;18.50;10.95;;;;;;;;;;13017213;22;20018;-84
2022/09/29 23:10:12;;;;;;;15.85;10.77;;;;;;;;;;13005011;22;20012;-84
2022/09/29 23:15:14;;;;;;;15.00;11.30;;;;;;;;;;13030453;22;20007;-84
2022/09/29 23:20:14;;;;;;;13.27;10.32;;;;;;;;;;13034715;22;20011;-83
2022/09/29 23:25:18;;;;;;;14.20;9.82;;;;;;;;;;13040048;22;20003;-84
2022/09/29 23:30:25;;;;;;;13.00;10.52;;;;;;;;;;13001393;22;20000;-81
2022/09/29 23:35:28;;;;;;;16.25;10.25;;;;;;;;;;13033905;22;20455;-82
2022/09/29 23:40:28;;;;;;;13.63;9.93;;;;;;;;;;12990832;22;20110;-83
2022/09/29 23:45:29;;;;;;;15.35;10.20;;;;;;;;;;12995878;22;20391;-84
2022/09/29 23:50:31;;;;;;;14.23;10.27;;;;;;;;;;12972042;22;20062;-85
2022/09/29 23:55:36;;;;;;;14.15;10.63;;;;;;;;;;12982977;22;20345;-82
